Time;durP1;ratioP1;P1;durP2;ratioP2;P2;SDS_P1;SDS_P2;PMS_P1;PMS_P2;Temp;Humidity;BMP_temperature;BMP_pressure;BME280_temperature;BME280_humidity;BME280_pressure;Samples;Min_cycle;Max_cycle;Signal;HPM_P1;HPM_P2
2023/01/20 00:02:26;;;;;;;22.23;14.43;;;0.40;12.40;;;;;;7368015;19;20011;-76
2023/01/20 00:04:57;;;;;;;20.42;12.98;;;0.30;12.40;;;;;;7367994;19;20031;-76
2023/01/20 00:07:27;;;;;;;22.23;13.77;;;0.30;12.50;;;;;;7367299;19;20021;-77
2023/01/20 00:09:56;;;;;;;21.20;14.18;;;0.30;13.10;;;;;;7363985;19;20018;-77
2023/01/20 00:12:26;;;;;;;21.83;13.48;;;0.40;12.60;;;;;;7388155;19;20015;-77
2023/01/20 00:14:56;;;;;;;21.20;13.98;;;0.40;11.80;;;;;;7367251;19;20018;-76
2023/01/20 00:17:29;;;;;;;22.15;15.00;;;0.50;11.30;;;;;;7365964;19;20010;-76
2023/01/20 00:19:59;;;;;;;23.40;15.02;;;0.40;11.30;;;;;;7365365;19;20833;-76
2023/01/20 00:22:29;;;;;;;27.52;16.00;;;0.40;12.20;;;;;;7367043;19;20021;-77
2023/01/20 00:24:59;;;;;;;23.40;15.85;;;0.30;13.70;;;;;;7366568;19;20089;-77
2023/01/20 00:27:29;;;;;;;23.33;15.05;;;0.30;15.40;;;;;;7388374;19;20375;-77
2023/01/20 00:29:58;;;;;;;22.20;15.32;;;0.20;16.50;;;;;;7363293;19;20615;-76
2023/01/20 00:32:31;;;;;;;22.60;14.85;;;0.20;16.50;;;;;;7365346;19;20002;-76
2023/01/20 00:35:01;;;;;;;22.10;14.60;;;0.20;16.50;;;;;;7365264;19;20014;-76
2023/01/20 00:37:30;;;;;;;23.23;13.85;;;0.30;16.60;;;;;;7363691;19;20015;-77
2023/01/20 00:40:00;;;;;;;21.40;13.95;;;0.30;15.90;;;;;;7361478;19;20010;-77
2023/01/20 00:42:30;;;;;;;22.75;13.25;;;0.30;15.20;;;;;;7385227;19;20018;-76
2023/01/20 00:45:00;;;;;;;21.63;14.00;;;0.30;14.50;;;;;;7364092;19;20014;-76
2023/01/20 00:47:34;;;;;;;22.80;14.23;;;0.40;14.00;;;;;;7362500;19;20015;-77
2023/01/20 00:50:04;;;;;;;19.73;13.75;;;0.40;13.20;;;;;;7362041;19;20395;-76
2023/01/20 00:52:34;;;;;;;25.75;13.82;;;0.40;13.00;;;;;;7363278;19;20007;-76
2023/01/20 00:55:03;;;;;;;25.92;14.52;;;0.40;13.20;;;;;;7362090;19;20081;-77
2023/01/20 00:57:33;;;;;;;24.38;14.05;;;0.30;12.60;;;;;;7387402;19;20014;-76
2023/01/20 01:00:03;;;;;;;20.90;13.95;;;0.30;13.10;;;;;;7359586;19;20475;-77
2023/01/20 01:02:39;;;;;;;24.67;14.35;;;0.30;13.00;;;;;;7363523;19;20018;-77
2023/01/20 01:05:09;;;;;;;22.50;14.32;;;0.30;13.30;;;;;;7363903;19;20002;-76
2023/01/20 01:07:39;;;;;;;22.20;14.88;;;0.40;13.80;;;;;;7362063;19;20809;-77
2023/01/20 01:10:11;;;;;;;24.10;14.50;;;0.40;13.40;;;;;;7360961;19;20022;-77
2023/01/20 01:12:41;;;;;;;21.88;14.48;;;0.40;13.10;;;;;;7385065;19;20014;-77
2023/01/20 01:15:12;;;;;;;20.15;13.80;;;0.40;13.80;;;;;;7363168;19;20477;-76
2023/01/20 01:17:45;;;;;;;21.80;14.10;;;0.30;13.30;;;;;;7362006;19;20485;-76
2023/01/20 01:20:15;;;;;;;22.33;14.05;;;0.30;13.30;;;;;;7361965;19;20090;-75
2023/01/20 01:22:45;;;;;;;23.75;15.20;;;0.20;14.80;;;;;;7363462;19;20003;-75
2023/01/20 01:25:15;;;;;;;22.83;15.52;;;0.20;15.50;;;;;;7362437;19;20010;-76
2023/01/20 01:27:45;;;;;;;25.35;15.30;;;0.30;16.20;;;;;;7375348;19;20014;-76
2023/01/20 01:30:15;;;;;;;24.88;14.95;;;0.20;15.70;;;;;;7384363;19;20103;-77
2023/01/20 01:32:49;;;;;;;21.55;14.63;;;0.20;16.50;;;;;;6594465;19;15061370;-76
2023/01/20 01:35:18;;;;;;;24.50;15.93;;;0.30;16.60;;;;;;7364650;19;20011;-76
2023/01/20 01:37:48;;;;;;;25.90;15.20;;;0.30;16.60;;;;;;7363985;19;20021;-76
2023/01/20 01:40:19;;;;;;;21.75;14.73;;;0.30;16.60;;;;;;7362443;19;20520;-77
2023/01/20 01:42:48;;;;;;;22.88;15.52;;;0.40;17.40;;;;;;7365203;19;20109;-78
2023/01/20 01:45:27;;;;;;;23.85;14.57;;;0.30;17.40;;;;;;7385144;19;20081;-76
2023/01/20 01:48:07;;;;;;;24.17;15.07;;;0.30;17.80;;;;;;7363693;19;20023;-76
2023/01/20 01:50:44;;;;;;;26.20;15.27;;;0.40;18.10;;;;;;7363025;19;20086;-76
2023/01/20 01:53:15;;;;;;;25.73;14.68;;;0.40;18.40;;;;;;7365832;19;20193;-77
2023/01/20 01:55:49;;;;;;;24.88;15.50;;;0.40;18.70;;;;;;7362877;19;20022;-76
2023/01/20 01:58:24;;;;;;;23.88;15.02;;;0.40;19.10;;;;;;7366081;19;20860;-75
2023/01/20 02:00:53;;;;;;;;;;;0.40;19.20;;;;;;7363849;19;20011;-76
2023/01/20 02:03:28;;;;;;;26.33;15.55;;;0.40;19.10;;;;;;7385111;19;19925;-77
2023/01/20 02:05:59;;;;;;;;;;;0.40;19.20;;;;;;7365219;19;20018;-75
2023/01/20 02:08:29;;;;;;;23.25;14.98;;;0.40;19.10;;;;;;7361731;19;19923;-76
2023/01/20 02:10:59;;;;;;;27.40;15.45;;;0.40;19.10;;;;;;7363792;19;20007;-76
2023/01/20 02:13:29;;;;;;;25.50;15.18;;;0.40;19.20;;;;;;7363437;19;20010;-75
2023/01/20 02:16:05;;;;;;;25.80;14.55;;;0.40;19.60;;;;;;7363507;19;20021;-75
2023/01/20 02:18:47;;;;;;;18.75;13.15;;;0.40;19.60;;;;;;7383161;19;20022;-76
2023/01/20 02:21:45;;;;;;;22.35;13.85;;;0.40;19.80;;;;;;7362516;19;20035;-77
2023/01/20 02:24:40;;;;;;;22.92;14.20;;;0.40;20.10;;;;;;7364920;19;21128;-76
2023/01/20 02:27:12;;;;;;;;;;;0.40;20.40;;;;;;7366843;19;20010;-75
2023/01/20 02:30:14;;;;;;;28.65;16.05;;;0.40;20.90;;;;;;7360273;19;19911;-75
2023/01/20 02:32:53;;;;;;;24.40;16.05;;;0.30;21.70;;;;;;7362870;19;20822;-76
2023/01/20 02:35:28;;;;;;;24.65;15.77;;;0.20;23.30;;;;;;7362234;19;20017;-76
2023/01/20 02:38:06;;;;;;;26.17;15.82;;;0.20;23.40;;;;;;7362794;19;20007;-76
2023/01/20 02:40:44;;;;;;;25.02;15.90;;;0.20;23.60;;;;;;7359702;19;20405;-75
2023/01/20 02:43:22;;;;;;;25.05;15.38;;;0.20;23.60;;;;;;7362570;19;20027;-75
2023/01/20 02:46:01;;;;;;;24.15;15.27;;;0.10;23.30;;;;;;7362881;19;20074;-77
2023/01/20 02:48:38;;;;;;;26.15;15.93;;;0.10;24.90;;;;;;7382932;19;20014;-76
2023/01/20 02:51:13;;;;;;;22.85;16.15;;;0.10;25.90;;;;;;7361047;19;20018;-76
2023/01/20 02:53:50;;;;;;;24.83;17.25;;;0.10;26.10;;;;;;7364051;19;20024;-76
2023/01/20 02:56:22;;;;;;;28.45;16.88;;;0.10;26.60;;;;;;7363134;19;20073;-76
2023/01/20 02:58:55;;;;;;;26.52;16.63;;;0.10;27.00;;;;;;7360852;19;20022;-76
2023/01/20 03:01:32;;;;;;;29.00;16.92;;;0.10;27.20;;;;;;7362139;19;20026;-76
2023/01/20 03:04:08;;;;;;;29.88;17.27;;;0.10;28.00;;;;;;7364903;19;20017;-77
2023/01/20 03:06:44;;;;;;;26.15;18.65;;;0.20;28.60;;;;;;7385598;19;20061;-75
2023/01/20 03:09:19;;;;;;;26.35;17.75;;;0.10;28.40;;;;;;7359693;19;20014;-76
2023/01/20 03:11:55;;;;;;;25.23;15.98;;;0.10;28.90;;;;;;7360555;19;20018;-76
2023/01/20 03:14:25;;;;;;;29.58;16.58;;;0.10;27.90;;;;;;7360445;19;20352;-77
2023/01/20 03:16:55;;;;;;;28.73;17.40;;;0.10;28.20;;;;;;7361865;19;20017;-76
2023/01/20 03:19:27;;;;;;;23.63;16.70;;;0.10;27.80;;;;;;7360916;19;20007;-77
2023/01/20 03:21:57;;;;;;;27.15;16.90;;;0.10;28.60;;;;;;7362769;19;20389;-76
2023/01/20 03:24:31;;;;;;;27.33;16.95;;;0.10;28.60;;;;;;7386677;19;20484;-76
2023/01/20 03:27:01;;;;;;;26.67;17.05;;;0.10;28.90;;;;;;7364636;19;20010;-76
2023/01/20 03:29:31;;;;;;;23.80;15.90;;;0.20;28.90;;;;;;7360688;19;20018;-76
2023/01/20 03:32:03;;;;;;;27.38;17.08;;;0.20;28.70;;;;;;7360053;19;20021;-76
2023/01/20 03:34:38;;;;;;;27.35;16.65;;;0.20;28.70;;;;;;7360662;19;20052;-75
2023/01/20 03:37:08;;;;;;;24.77;15.77;;;0.10;28.30;;;;;;7362506;19;20102;-75
2023/01/20 03:39:40;;;;;;;24.98;16.63;;;0.10;28.40;;;;;;7380077;19;20362;-75
2023/01/20 03:42:12;;;;;;;23.23;15.23;;;0.10;28.50;;;;;;7360190;19;20010;-75
2023/01/20 03:44:59;;;;;;;24.85;16.98;;;0.10;28.30;;;;;;7359578;19;20795;-76
2023/01/20 03:47:43;;;;;;;23.98;16.50;;;0.10;28.30;;;;;;7359925;19;20019;-76
2023/01/20 03:50:27;;;;;;;22.50;15.60;;;0.10;28.10;;;;;;7358848;19;20093;-76
2023/01/20 03:53:02;;;;;;;27.80;17.20;;;0.00;27.30;;;;;;7362527;19;20301;-76
2023/01/20 03:55:35;;;;;;;23.90;15.52;;;0.00;27.70;;;;;;7360055;19;20085;-76
2023/01/20 03:58:09;;;;;;;24.02;14.95;;;0.00;28.00;;;;;;7362427;19;20468;-76
2023/01/20 04:00:42;;;;;;;22.45;15.57;;;-0.10;27.50;;;;;;7379025;19;20025;-75
2023/01/20 04:03:17;;;;;;;20.83;14.02;;;-0.10;27.80;;;;;;7361964;19;20011;-75
2023/01/20 04:05:51;;;;;;;23.33;14.40;;;-0.10;27.50;;;;;;7359657;19;20612;-76
2023/01/20 04:08:26;;;;;;;20.80;13.63;;;-0.20;27.20;;;;;;7359272;19;20049;-75
2023/01/20 04:10:59;;;;;;;22.02;14.30;;;-0.10;27.80;;;;;;7359428;19;20053;-76
2023/01/20 04:13:29;;;;;;;23.00;13.27;;;-0.10;27.80;;;;;;7361110;19;20014;-76
2023/01/20 04:16:01;;;;;;;23.27;14.10;;;-0.20;27.10;;;;;;7359108;19;20014;-75
2023/01/20 04:18:30;;;;;;;19.40;13.68;;;-0.20;27.00;;;;;;7382898;19;20392;-75
2023/01/20 04:21:05;;;;;;;23.33;13.35;;;-0.30;27.00;;;;;;7358096;19;20014;-75
2023/01/20 04:23:40;;;;;;;21.10;13.40;;;-0.30;26.70;;;;;;7361716;19;20019;-75
2023/01/20 04:26:10;;;;;;;21.55;13.45;;;-0.30;26.60;;;;;;7364018;19;20098;-75
2023/01/20 04:28:40;;;;;;;19.50;12.93;;;-0.30;26.40;;;;;;7365575;19;20018;-75
2023/01/20 04:31:10;;;;;;;21.55;12.80;;;-0.40;26.10;;;;;;7366074;19;20021;-75
2023/01/20 04:33:58;;;;;;;23.35;13.65;;;-0.40;25.60;;;;;;7368094;19;20018;-75
2023/01/20 04:36:30;;;;;;;22.95;13.50;;;-0.40;25.40;;;;;;7387017;19;20026;-76
2023/01/20 04:39:00;;;;;;;22.55;13.93;;;-0.30;25.10;;;;;;7364435;19;20014;-76
2023/01/20 04:41:30;;;;;;;22.05;13.05;;;-0.40;24.90;;;;;;7365777;19;20049;-76
2023/01/20 04:44:00;;;;;;;20.13;14.10;;;-0.40;24.90;;;;;;7367027;19;20018;-76
2023/01/20 04:46:30;;;;;;;22.23;14.18;;;-0.40;25.00;;;;;;7365694;19;20011;-75
2023/01/20 04:49:00;;;;;;;20.52;13.45;;;-0.40;24.90;;;;;;7364762;19;20486;-75
2023/01/20 04:51:34;;;;;;;25.23;14.63;;;-0.40;24.90;;;;;;7386509;19;20018;-74
2023/01/20 04:54:03;;;;;;;21.33;14.18;;;-0.50;25.10;;;;;;7369167;19;20078;-76
2023/01/20 04:56:33;;;;;;;25.52;14.32;;;-0.40;25.70;;;;;;7365168;19;20473;-75
2023/01/20 04:59:03;;;;;;;22.98;15.02;;;-0.50;25.50;;;;;;7363397;19;20019;-76
2023/01/20 05:01:33;;;;;;;24.00;15.07;;;-0.40;26.30;;;;;;7365439;19;20457;-76
2023/01/20 05:04:03;;;;;;;21.88;14.60;;;-0.30;26.40;;;;;;7368342;19;20014;-76
2023/01/20 05:06:36;;;;;;;19.42;14.10;;;-0.30;26.30;;;;;;7388945;19;20090;-75
2023/01/20 05:09:09;;;;;;;22.00;14.20;;;-0.30;25.40;;;;;;7363587;19;20490;-75
2023/01/20 05:11:39;;;;;;;25.77;15.45;;;-0.30;25.70;;;;;;7363260;19;20546;-75
2023/01/20 05:14:09;;;;;;;23.42;14.95;;;-0.30;24.90;;;;;;7368545;19;20014;-76
2023/01/20 05:16:39;;;;;;;25.58;14.77;;;-0.30;24.60;;;;;;7364750;19;20019;-75
2023/01/20 05:19:09;;;;;;;22.95;14.45;;;-0.30;25.10;;;;;;7363617;19;20018;-75
2023/01/20 05:21:41;;;;;;;20.70;14.13;;;-0.30;25.20;;;;;;7385585;19;20015;-76
2023/01/20 05:24:11;;;;;;;23.35;14.70;;;-0.30;24.70;;;;;;7368271;19;20018;-75
2023/01/20 05:26:41;;;;;;;20.48;14.25;;;-0.30;24.50;;;;;;7365881;19;20015;-75
2023/01/20 05:29:11;;;;;;;21.25;13.65;;;-0.20;24.20;;;;;;7362642;19;20011;-75
2023/01/20 05:31:42;;;;;;;21.42;13.40;;;-0.30;23.90;;;;;;7364284;19;20021;-76
2023/01/20 05:34:12;;;;;;;21.48;14.18;;;-0.30;23.10;;;;;;7366257;19;20018;-76
2023/01/20 05:36:45;;;;;;;22.08;14.18;;;-0.30;23.30;;;;;;7384521;19;20085;-76
2023/01/20 05:39:14;;;;;;;21.60;13.90;;;-0.30;23.00;;;;;;7361339;19;20078;-75
2023/01/20 05:41:45;;;;;;;20.08;13.18;;;-0.20;23.70;;;;;;7362805;19;20007;-75
2023/01/20 05:44:15;;;;;;;18.40;12.68;;;-0.30;23.10;;;;;;7365742;19;20021;-76
2023/01/20 05:46:45;;;;;;;24.48;14.13;;;-0.20;23.60;;;;;;7362765;19;20110;-77
2023/01/20 05:49:15;;;;;;;23.52;14.13;;;-0.30;23.00;;;;;;7361213;19;20019;-77
2023/01/20 05:51:47;;;;;;;18.92;13.32;;;-0.30;22.00;;;;;;7379973;19;20018;-75
2023/01/20 05:54:17;;;;;;;23.73;14.45;;;-0.30;23.00;;;;;;7389070;19;20015;-76
2023/01/20 05:56:50;;;;;;;19.33;13.68;;;-0.40;22.50;;;;;;7363304;19;20074;-76
2023/01/20 05:59:20;;;;;;;21.52;14.25;;;-0.40;22.60;;;;;;7361363;19;20011;-77
2023/01/20 06:01:50;;;;;;;24.02;13.48;;;-0.40;22.90;;;;;;7363072;19;20797;-76
2023/01/20 06:04:20;;;;;;;21.60;14.13;;;-0.50;22.40;;;;;;7365939;19;20098;-76
2023/01/20 06:06:52;;;;;;;27.95;14.77;;;-0.40;23.00;;;;;;7364612;19;20017;-76
2023/01/20 06:09:22;;;;;;;22.23;14.60;;;-0.40;23.00;;;;;;7384762;19;20708;-75
2023/01/20 06:11:53;;;;;;;24.23;14.60;;;-0.50;23.00;;;;;;7365078;19;20011;-75
2023/01/20 06:14:22;;;;;;;23.63;14.77;;;-0.40;23.00;;;;;;7363362;19;20110;-76
2023/01/20 06:16:52;;;;;;;26.10;15.52;;;-0.50;22.90;;;;;;7362558;19;20018;-76
2023/01/20 06:19:22;;;;;;;21.75;14.43;;;-0.50;22.90;;;;;;7360463;19;20470;-75
2023/01/20 06:21:55;;;;;;;26.30;16.05;;;-0.50;22.90;;;;;;7361791;19;20025;-75
2023/01/20 06:24:24;;;;;;;21.88;14.85;;;-0.40;23.00;;;;;;7387684;19;20015;-75
2023/01/20 06:26:54;;;;;;;23.60;15.13;;;-0.50;22.90;;;;;;7364290;19;20529;-75
2023/01/20 06:29:24;;;;;;;24.95;16.13;;;-0.50;22.90;;;;;;7360373;19;20088;-75
2023/01/20 06:31:54;;;;;;;24.13;16.40;;;-0.50;22.90;;;;;;7361242;19;20021;-75
2023/01/20 06:34:24;;;;;;;23.45;15.85;;;-0.50;22.90;;;;;;7364912;19;20027;-75
2023/01/20 06:36:57;;;;;;;22.27;14.95;;;-0.50;22.80;;;;;;7361691;19;20011;-75
2023/01/20 06:39:26;;;;;;;24.10;15.93;;;-0.50;22.90;;;;;;7380955;19;20018;-76
2023/01/20 06:41:59;;;;;;;26.08;15.35;;;-0.50;22.90;;;;;;7360516;19;20383;-75
2023/01/20 06:44:29;;;;;;;23.55;16.05;;;-0.50;22.90;;;;;;7362714;19;20039;-76
2023/01/20 06:46:59;;;;;;;25.33;16.40;;;-0.50;22.90;;;;;;7360570;19;20090;-76
2023/01/20 06:49:29;;;;;;;23.83;14.93;;;-0.60;22.90;;;;;;7359986;19;20014;-77
2023/01/20 06:52:01;;;;;;;23.30;15.85;;;-0.50;22.90;;;;;;7361328;19;20007;-75
2023/01/20 06:54:31;;;;;;;26.42;16.27;;;-0.50;22.90;;;;;;7387549;19;20014;-76
2023/01/20 06:57:01;;;;;;;25.17;16.85;;;-0.50;22.90;;;;;;7361843;19;20018;-76
2023/01/20 06:59:31;;;;;;;23.90;16.20;;;-0.50;21.80;;;;;;7359310;19;20421;-75
2023/01/20 07:02:01;;;;;;;26.25;16.70;;;-0.50;21.80;;;;;;7361251;19;20549;-74
2023/01/20 07:04:31;;;;;;;25.30;17.00;;;-0.50;21.80;;;;;;7363806;19;20078;-76
2023/01/20 07:07:03;;;;;;;25.60;16.83;;;-0.40;22.30;;;;;;7363570;19;20010;-77
2023/01/20 07:09:33;;;;;;;22.38;15.73;;;-0.30;22.40;;;;;;7380299;19;20014;-76
2023/01/20 07:12:03;;;;;;;23.77;15.93;;;-0.40;21.70;;;;;;7359363;19;20359;-76
2023/01/20 07:14:33;;;;;;;23.63;15.88;;;-0.40;20.50;;;;;;7361198;19;20621;-76
2023/01/20 07:17:02;;;;;;;22.20;14.77;;;-0.40;20.20;;;;;;7361356;19;20014;-76
2023/01/20 07:19:32;;;;;;;24.77;15.98;;;-0.40;20.50;;;;;;7359493;19;20374;-76
2023/01/20 07:22:04;;;;;;;25.23;16.52;;;-0.30;20.70;;;;;;7359980;19;20014;-76
2023/01/20 07:24:34;;;;;;;26.85;15.85;;;-0.30;20.00;;;;;;7380199;19;20026;-74
2023/01/20 07:27:04;;;;;;;24.40;16.10;;;-0.30;19.40;;;;;;7361904;19;20037;-75
2023/01/20 07:29:34;;;;;;;23.23;15.80;;;-0.20;20.00;;;;;;7357813;19;20488;-76
2023/01/20 07:32:04;;;;;;;24.42;16.65;;;-0.30;19.50;;;;;;7359644;19;20010;-76
2023/01/20 07:34:34;;;;;;;25.73;16.55;;;-0.30;19.90;;;;;;7360120;19;20014;-76
2023/01/20 07:37:06;;;;;;;25.42;15.70;;;-0.20;19.80;;;;;;7359148;19;20353;-76
2023/01/20 07:39:36;;;;;;;29.55;16.17;;;-0.20;19.30;;;;;;7380290;19;20021;-77
2023/01/20 07:42:06;;;;;;;25.33;16.33;;;-0.20;19.40;;;;;;7359763;19;20021;-77
2023/01/20 07:44:36;;;;;;;26.30;16.48;;;-0.10;19.40;;;;;;7358863;19;20018;-76
2023/01/20 07:47:06;;;;;;;25.67;16.10;;;-0.20;19.00;;;;;;7360783;19;20467;-76
2023/01/20 07:49:36;;;;;;;22.75;15.18;;;-0.20;19.40;;;;;;7358712;19;20090;-76
2023/01/20 07:52:08;;;;;;;29.13;16.20;;;-0.10;19.20;;;;;;7359591;19;20067;-76
2023/01/20 07:54:38;;;;;;;22.52;14.68;;;-0.10;18.70;;;;;;7380628;19;20010;-76
2023/01/20 07:57:08;;;;;;;22.77;14.95;;;0.00;18.20;;;;;;7359760;19;20052;-76
2023/01/20 07:59:38;;;;;;;24.35;15.15;;;0.10;17.40;;;;;;7356407;19;20058;-77
2023/01/20 08:02:07;;;;;;;22.92;14.98;;;0.10;16.50;;;;;;7368213;19;20010;-76
2023/01/20 08:04:37;;;;;;;23.70;14.80;;;0.10;15.70;;;;;;7369492;19;20018;-76
2023/01/20 08:07:10;;;;;;;24.73;14.95;;;0.10;15.70;;;;;;7367916;19;20523;-76
2023/01/20 08:09:40;;;;;;;18.67;12.85;;;0.10;14.10;;;;;;7387001;19;20373;-76
2023/01/20 08:12:10;;;;;;;24.92;14.45;;;0.10;14.30;;;;;;7367694;19;20010;-77
2023/01/20 08:14:40;;;;;;;21.92;13.88;;;0.00;14.30;;;;;;7366769;19;20011;-77
2023/01/20 08:17:10;;;;;;;28.65;15.50;;;0.10;15.40;;;;;;7365727;19;20365;-77
2023/01/20 08:19:39;;;;;;;21.27;13.50;;;0.20;14.30;;;;;;7366197;19;20017;-77
2023/01/20 08:22:12;;;;;;;20.85;14.13;;;0.20;13.70;;;;;;7367157;19;20525;-76
2023/01/20 08:24:42;;;;;;;25.45;13.85;;;0.10;12.90;;;;;;7387877;19;20098;-76
2023/01/20 08:27:12;;;;;;;19.05;13.13;;;0.10;13.70;;;;;;7367214;19;20090;-77
2023/01/20 08:29:42;;;;;;;19.50;13.32;;;0.10;13.10;;;;;;7364297;19;20101;-76
2023/01/20 08:32:11;;;;;;;21.17;12.23;;;0.10;13.40;;;;;;7367264;19;20486;-77
2023/01/20 08:34:42;;;;;;;20.30;11.80;;;0.10;11.80;;;;;;7366649;19;20014;-76
2023/01/20 08:37:14;;;;;;;20.13;11.90;;;0.10;11.80;;;;;;7365151;19;20015;-77
2023/01/20 08:39:44;;;;;;;20.52;12.05;;;0.10;11.90;;;;;;7386410;19;20023;-76
2023/01/20 08:42:14;;;;;;;18.73;12.52;;;0.20;11.60;;;;;;7366190;19;20019;-77
2023/01/20 08:44:46;;;;;;;20.45;12.15;;;0.20;11.90;;;;;;7365120;19;20010;-77
2023/01/20 08:47:15;;;;;;;23.65;15.25;;;0.40;11.80;;;;;;7365966;19;20482;-76
2023/01/20 08:49:45;;;;;;;21.88;12.43;;;0.70;10.30;;;;;;7364387;19;20486;-75
2023/01/20 08:52:18;;;;;;;18.83;11.30;;;0.80;7.60;;;;;;7365800;19;20042;-77
2023/01/20 08:54:48;;;;;;;17.33;10.32;;;0.50;6.50;;;;;;7365434;19;20014;-76
2023/01/20 08:57:18;;;;;;;18.65;11.50;;;0.40;6.70;;;;;;7387563;19;20022;-77
2023/01/20 08:59:49;;;;;;;16.88;11.00;;;0.40;7.00;;;;;;7365640;19;20471;-77
2023/01/20 09:02:19;;;;;;;20.08;11.43;;;0.50;6.70;;;;;;7366597;19;20019;-77
2023/01/20 09:04:49;;;;;;;18.88;10.77;;;0.60;7.10;;;;;;7365196;19;20015;-76
2023/01/20 09:07:22;;;;;;;17.50;11.10;;;0.60;6.20;;;;;;7365488;19;20361;-76
2023/01/20 09:09:52;;;;;;;18.27;10.38;;;0.60;5.40;;;;;;7362681;19;20098;-77
2023/01/20 09:12:21;;;;;;;18.92;10.80;;;0.60;4.40;;;;;;7385831;19;20082;-76
2023/01/20 09:14:51;;;;;;;16.88;11.80;;;0.50;4.00;;;;;;7365197;19;20330;-77
2023/01/20 09:17:21;;;;;;;19.17;10.95;;;0.50;4.00;;;;;;7365051;19;20033;-75
2023/01/20 09:19:51;;;;;;;15.02;9.45;;;0.60;5.50;;;;;;7363965;19;20022;-76
2023/01/20 09:22:24;;;;;;;16.25;10.82;;;0.60;4.10;;;;;;7365449;19;20077;-76
2023/01/20 09:24:54;;;;;;;17.67;10.38;;;0.70;2.60;;;;;;7365656;19;20014;-76
2023/01/20 09:27:25;;;;;;;20.70;11.02;;;0.80;2.70;;;;;;7386330;19;20014;-77
2023/01/20 09:29:55;;;;;;;14.52;9.38;;;0.80;2.70;;;;;;7362575;19;20027;-77
2023/01/20 09:32:25;;;;;;;16.08;10.32;;;0.90;2.70;;;;;;7364545;19;20010;-77
2023/01/20 09:34:55;;;;;;;15.45;10.10;;;0.80;2.70;;;;;;7365037;19;20074;-76
2023/01/20 09:45:55;;;;;;;16.00;9.55;;;1.00;1.00;;;;;;7366693;19;20021;-77
2023/01/20 09:54:21;;;;;;;16.35;10.02;;;1.40;1.00;;;;;;7363592;19;20035;-76
2023/01/20 09:56:55;;;;;;;19.75;12.55;;;1.40;1.00;;;;;;7363303;19;20466;-76
2023/01/20 09:59:29;;;;;;;13.55;9.55;;;1.60;1.00;;;;;;7362270;19;20031;-76
2023/01/20 10:02:02;;;;;;;15.93;10.20;;;1.60;1.00;;;;;;7364047;19;20021;-76
2023/01/20 10:04:37;;;;;;;12.70;8.73;;;1.60;1.00;;;;;;7364083;19;20390;-77
2023/01/20 10:07:12;;;;;;;15.13;9.82;;;1.50;1.00;;;;;;7363796;19;20395;-76
2023/01/20 10:09:47;;;;;;;;;;;1.60;1.00;;;;;;7383991;19;20028;-76
2023/01/20 10:12:23;;;;;;;16.35;9.18;;;1.80;1.00;;;;;;7363689;19;19953;-76
2023/01/20 10:15:01;;;;;;;15.27;8.65;;;1.70;1.00;;;;;;7363975;19;20018;-76
2023/01/20 10:17:36;;;;;;;13.32;9.05;;;1.80;1.00;;;;;;7363068;19;20021;-75
2023/01/20 10:20:11;;;;;;;14.07;8.82;;;1.80;1.00;;;;;;7362047;19;20129;-75
2023/01/20 10:22:47;;;;;;;15.80;8.68;;;1.80;1.00;;;;;;7361679;19;20504;-75
2023/01/20 10:25:24;;;;;;;15.27;8.85;;;1.80;1.00;;;;;;7362412;19;20010;-75
2023/01/20 10:27:58;;;;;;;14.15;8.63;;;1.80;1.00;;;;;;7357588;19;20478;-75
2023/01/20 10:30:34;;;;;;;15.60;9.20;;;1.70;1.00;;;;;;7380504;19;20064;-74
2023/01/20 10:33:10;;;;;;;15.80;8.40;;;1.80;1.00;;;;;;7364598;19;20015;-76
2023/01/20 10:35:43;;;;;;;13.52;8.73;;;1.90;1.00;;;;;;7358686;19;20129;-76
2023/01/20 10:38:22;;;;;;;12.27;8.18;;;1.80;1.00;;;;;;7358462;19;20011;-75
2023/01/20 10:41:01;;;;;;;15.82;8.90;;;1.80;1.00;;;;;;7361663;19;20085;-76
2023/01/20 10:43:32;;;;;;;15.68;8.80;;;1.90;1.00;;;;;;7358318;19;20208;-76
2023/01/20 10:46:23;;;;;;;11.32;8.15;;;1.90;1.00;;;;;;7358798;19;20103;-75
2023/01/20 10:49:24;;;;;;;15.30;8.88;;;1.90;1.00;;;;;;7360304;19;20511;-75
2023/01/20 10:52:10;;;;;;;15.00;8.90;;;2.00;1.00;;;;;;7359379;19;20018;-76
2023/01/20 10:54:47;;;;;;;12.65;8.65;;;2.00;1.00;;;;;;7378300;19;20773;-75
2023/01/20 10:57:20;;;;;;;13.63;8.00;;;2.00;1.00;;;;;;7359689;19;20006;-76
2023/01/20 10:59:53;;;;;;;14.80;8.80;;;1.80;1.00;;;;;;7361424;19;20014;-74
2023/01/20 11:02:27;;;;;;;13.82;9.30;;;1.80;1.00;;;;;;7357725;19;20010;-74
2023/01/20 11:05:00;;;;;;;15.25;8.40;;;2.00;1.00;;;;;;7359988;19;20010;-74
2023/01/20 11:07:32;;;;;;;14.68;9.32;;;2.00;1.00;;;;;;7358193;19;20014;-74
2023/01/20 11:10:15;;;;;;;16.90;9.18;;;2.10;1.00;;;;;;7361915;19;20023;-74
2023/01/20 11:12:52;;;;;;;14.48;8.18;;;2.20;1.00;;;;;;7375500;19;20021;-76
2023/01/20 11:15:24;;;;;;;17.30;10.88;;;2.00;1.00;;;;;;7382205;19;20045;-73
2023/01/20 11:18:23;;;;;;;12.00;8.52;;;2.30;1.00;;;;;;7359932;19;20039;-74
2023/01/20 11:20:55;;;;;;;15.50;7.90;;;2.20;1.00;;;;;;7362494;19;20018;-81
2023/01/20 11:23:34;;;;;;;14.40;9.25;;;2.10;1.00;;;;;;7359119;19;20015;-71
2023/01/20 11:26:08;;;;;;;13.73;8.48;;;2.30;1.00;;;;;;7358609;19;20478;-72
2023/01/20 11:28:55;;;;;;;15.68;9.07;;;2.30;1.00;;;;;;7360407;19;20105;-72
2023/01/20 11:31:39;;;;;;;12.68;8.48;;;2.20;1.00;;;;;;7358969;19;20010;-72
2023/01/20 11:34:23;;;;;;;14.13;9.25;;;2.40;1.00;;;;;;7359737;19;20038;-73
2023/01/20 11:37:13;;;;;;;13.15;9.05;;;2.20;1.00;;;;;;7367308;19;20138;-74
2023/01/20 11:39:46;;;;;;;16.40;9.10;;;2.20;1.00;;;;;;7389484;19;20018;-74
2023/01/20 11:42:19;;;;;;;13.48;9.60;;;1.90;1.00;;;;;;7367540;19;20011;-74
2023/01/20 11:44:53;;;;;;;14.43;8.75;;;2.00;1.00;;;;;;7366436;19;20031;-74
2023/01/20 11:47:25;;;;;;;13.88;8.20;;;2.00;1.00;;;;;;7369457;19;20011;-75
2023/01/20 11:50:24;;;;;;;15.25;8.68;;;1.80;1.00;;;;;;7366991;19;20007;-74
2023/01/20 11:52:54;;;;;;;13.27;8.63;;;1.80;1.00;;;;;;7366911;19;20482;-74
2023/01/20 11:55:26;;;;;;;15.07;8.73;;;2.00;1.00;;;;;;7366158;19;20489;-72
2023/01/20 11:57:58;;;;;;;12.43;7.90;;;2.20;1.00;;;;;;7368353;19;20097;-74
2023/01/20 12:00:40;;;;;;;13.93;8.65;;;2.00;1.00;;;;;;7388875;19;20107;-73
2023/01/20 12:03:36;;;;;;;13.85;8.73;;;2.20;1.00;;;;;;7366512;19;20398;-73
2023/01/20 12:06:11;;;;;;;;;;;2.10;1.00;;;;;;7367355;19;20020;-73
2023/01/20 12:08:48;;;;;;;12.35;7.32;;;2.30;1.00;;;;;;7365495;19;19914;-74
2023/01/20 12:11:22;;;;;;;8.75;6.85;;;2.30;1.00;;;;;;7365963;19;20018;-72
2023/01/20 12:14:27;;;;;;;10.00;6.93;;;2.30;1.00;;;;;;7366807;19;20010;-73
2023/01/20 12:17:11;;;;;;;12.63;7.80;;;2.40;1.00;;;;;;7366210;19;20555;-73
2023/01/20 12:19:55;;;;;;;12.10;7.35;;;2.60;1.00;;;;;;7362993;19;20018;-73
2023/01/20 12:22:30;;;;;;;13.10;8.13;;;2.60;1.00;;;;;;7364945;19;20007;-73
2023/01/20 12:25:12;;;;;;;11.90;7.15;;;2.60;1.00;;;;;;7365638;19;20545;-73
2023/01/20 12:27:50;;;;;;;14.65;7.75;;;2.80;1.00;;;;;;7386186;19;20082;-73
2023/01/20 12:30:38;;;;;;;12.15;7.47;;;3.10;1.00;;;;;;7364826;19;20015;-72
2023/01/20 12:33:19;;;;;;;11.95;6.32;;;3.20;1.00;;;;;;7364548;19;20010;-73
2023/01/20 12:36:06;;;;;;;8.90;4.53;;;3.10;1.00;;;;;;7364989;19;20015;-72
2023/01/20 12:38:43;;;;;;;10.10;3.92;;;2.70;1.00;;;;;;7365395;19;20014;-72
2023/01/20 12:41:22;;;;;;;8.43;4.68;;;2.70;1.00;;;;;;7364428;19;20014;-73
2023/01/20 12:44:00;;;;;;;9.80;5.07;;;2.70;1.00;;;;;;7367948;19;20020;-73
2023/01/20 12:46:40;;;;;;;6.68;4.40;;;2.60;1.00;;;;;;7363866;19;20038;-73
2023/01/20 12:49:37;;;;;;;8.93;4.55;;;2.70;1.00;;;;;;7364809;19;20022;-73
2023/01/20 12:52:24;;;;;;;9.00;5.10;;;2.70;1.00;;;;;;7365206;19;20015;-71
2023/01/20 12:55:10;;;;;;;9.63;5.88;;;2.80;1.00;;;;;;7363194;19;20019;-73
2023/01/20 12:57:59;;;;;;;8.50;5.10;;;2.90;1.00;;;;;;7386957;19;20018;-72
2023/01/20 13:00:49;;;;;;;8.80;5.05;;;2.60;1.00;;;;;;7357620;19;20085;-73
2023/01/20 13:03:46;;;;;;;11.75;4.97;;;2.80;1.00;;;;;;7364125;19;20014;-73
2023/01/20 13:06:48;;;;;;;10.40;4.70;;;3.00;1.00;;;;;;7361661;19;20015;-72
2023/01/20 13:09:38;;;;;;;7.60;4.53;;;3.10;1.00;;;;;;7359642;19;20010;-73
2023/01/20 13:12:25;;;;;;;12.77;4.80;;;3.00;1.00;;;;;;7368768;19;20021;-73
2023/01/20 13:15:01;;;;;;;9.68;4.72;;;2.80;1.00;;;;;;7370438;19;20018;-71
2023/01/20 13:17:39;;;;;;;10.57;4.20;;;2.70;1.00;;;;;;7369587;19;20042;-72
2023/01/20 13:20:19;;;;;;;9.25;4.80;;;2.80;1.00;;;;;;7366183;19;20018;-73
2023/01/20 13:23:00;;;;;;;10.52;4.72;;;2.90;1.00;;;;;;7370114;19;20022;-73
2023/01/20 13:25:31;;;;;;;6.22;4.28;;;2.80;1.00;;;;;;7371258;19;20097;-72
2023/01/20 13:28:01;;;;;;;10.55;4.53;;;2.70;1.00;;;;;;7372325;19;20480;-72
2023/01/20 13:30:46;;;;;;;7.88;4.60;;;2.70;1.00;;;;;;7389941;19;20519;-72
2023/01/20 13:33:17;;;;;;;;;;;2.80;1.00;;;;;;7373019;19;20010;-72